Time;durP1;ratioP1;P1;durP2;ratioP2;P2;SDS_P1;SDS_P2;PMS_P1;PMS_P2;Temp;Humidity;BMP_temperature;BMP_pressure;BME280_temperature;BME280_humidity;BME280_pressure;Samples;Min_cycle;Max_cycle;Signal;HPM_P1;HPM_P2
2021/08/28 00:01:27;;;;;;;16.83;4.90;;;;;;;14.07;89.42;102212.19;5065924;28;20028;-61
2021/08/28 00:03:52;;;;;;;15.25;5.30;;;;;;;14.11;89.37;102217.50;5063913;28;20056;-62
2021/08/28 00:06:17;;;;;;;21.10;5.35;;;;;;;14.15;88.95;102213.97;5063753;28;20072;-61
2021/08/28 00:08:43;;;;;;;18.88;5.72;;;;;;;14.17;88.99;102211.34;5064706;28;20021;-62
2021/08/28 00:11:08;;;;;;;25.45;5.35;;;;;;;14.19;88.90;102209.59;5064715;28;20064;-62
2021/08/28 00:13:34;;;;;;;26.17;5.32;;;;;;;14.21;88.83;102202.56;5065054;28;20041;-62
2021/08/28 00:15:59;;;;;;;17.15;5.50;;;;;;;14.22;88.71;102204.34;5063644;28;20063;-62
2021/08/28 00:18:25;;;;;;;22.50;5.05;;;;;;;14.26;88.86;102198.19;5065296;28;20461;-62
2021/08/28 00:20:50;;;;;;;17.92;5.05;;;;;;;14.30;88.84;102202.59;5065698;28;20032;-62
2021/08/28 00:23:16;;;;;;;21.90;5.82;;;;;;;14.32;89.28;102202.63;5063955;28;20036;-61
2021/08/28 00:25:41;;;;;;;21.60;5.63;;;;;;;14.33;89.40;102196.44;5065801;28;20495;-62
2021/08/28 00:28:06;;;;;;;17.92;5.70;;;;;;;14.34;89.27;102195.56;5064706;28;20028;-61
2021/08/28 00:30:32;;;;;;;16.58;5.82;;;;;;;14.36;89.52;102207.03;5063375;28;20106;-61
2021/08/28 00:33:07;;;;;;;21.33;5.47;;;;;;;14.35;89.28;102206.16;5065171;28;20068;-60
2021/08/28 00:35:33;;;;;;;21.13;5.35;;;;;;;14.37;89.20;102200.88;5065094;28;20033;-60
2021/08/28 00:37:58;;;;;;;18.95;5.53;;;;;;;14.39;89.46;102207.06;5063022;28;20028;-63
2021/08/28 00:40:23;;;;;;;17.48;5.38;;;;;;;14.43;89.57;102198.25;5063902;28;20112;-63
2021/08/28 00:42:51;;;;;;;19.25;5.63;;;;;;;14.46;89.25;102200.94;5064934;28;20021;-61
2021/08/28 00:45:19;;;;;;;18.08;5.32;;;;;;;14.48;88.85;102198.25;5062411;28;20108;-62
2021/08/28 00:48:11;;;;;;;18.45;5.00;;;;;;;14.49;89.01;102198.28;5064588;28;20016;-62
2021/08/28 00:50:39;;;;;;;19.85;5.03;;;;;;;14.49;88.39;102192.97;5060175;28;20021;-62
2021/08/28 00:53:09;;;;;;;21.38;4.95;;;;;;;14.51;88.08;102199.16;5064900;28;20145;-62
2021/08/28 00:55:36;;;;;;;15.35;4.90;;;;;;;14.51;88.65;102196.50;5064677;28;20496;-64
2021/08/28 00:58:02;;;;;;;19.40;5.07;;;;;;;14.51;88.35;102208.84;5064189;28;20037;-62
2021/08/28 01:00:28;;;;;;;12.90;4.80;;;;;;;14.51;88.48;102204.44;5063801;28;20033;-61
2021/08/28 01:02:55;;;;;;;16.70;4.45;;;;;;;14.51;88.18;102206.22;5063739;28;20046;-63
2021/08/28 01:05:33;;;;;;;22.90;5.50;;;;;;;14.50;88.44;102209.72;5062850;28;20489;-62
2021/08/28 01:08:13;;;;;;;24.23;5.10;;;;;;;14.50;88.57;102201.78;5063702;28;20032;-61
2021/08/28 01:10:43;;;;;;;18.33;5.28;;;;;;;14.52;88.94;102205.34;5062012;28;20032;-62
2021/08/28 01:13:15;;;;;;;14.18;5.22;;;;;;;14.50;88.86;102204.44;5061229;28;20021;-62
2021/08/28 01:15:43;;;;;;;16.60;4.65;;;;;;;14.50;88.74;102204.44;5065733;28;20078;-63
2021/08/28 01:18:11;;;;;;;19.77;5.05;;;;;;;14.53;88.21;102205.34;5064017;28;20040;-62
2021/08/28 01:20:39;;;;;;;23.52;5.00;;;;;;;14.57;88.19;102209.81;5064493;28;20366;-61
2021/08/28 01:23:06;;;;;;;25.75;5.53;;;;;;;14.58;87.65;102203.63;5063006;28;20052;-62
2021/08/28 01:25:32;;;;;;;20.35;5.88;;;;;;;14.58;88.50;102202.75;5062945;28;20029;-61
2021/08/28 01:28:11;;;;;;;18.88;4.85;;;;;;;14.59;88.40;102202.78;5062844;28;20495;-61
2021/08/28 01:30:40;;;;;;;;;;;;;;;14.57;88.94;102208.91;5061959;28;20025;-62
2021/08/28 01:33:06;;;;;;;14.00;4.32;;;;;;;14.56;88.49;102202.72;5060740;28;19976;-61
2021/08/28 01:35:33;;;;;;;21.67;5.47;;;;;;;14.62;88.12;102201.88;5063004;28;20051;-61
2021/08/28 01:38:00;;;;;;;14.05;4.65;;;;;;;14.61;88.26;102202.75;5063828;28;20041;-62
2021/08/28 01:40:28;;;;;;;18.17;5.75;;;;;;;14.60;88.68;102203.66;5062721;28;20025;-62
2021/08/28 01:42:55;;;;;;;18.48;4.70;;;;;;;14.59;88.85;102201.84;5060236;28;20155;-61
2021/08/28 01:45:26;;;;;;;17.88;5.75;;;;;;;14.60;89.37;102204.50;5060003;28;20665;-61
2021/08/28 01:47:53;;;;;;;19.00;5.07;;;;;;;14.64;89.00;102209.81;5062015;28;20132;-62
2021/08/28 01:50:22;;;;;;;23.70;5.22;;;;;;;14.68;89.12;102206.31;5059537;28;20021;-62
2021/08/28 01:52:49;;;;;;;21.85;5.18;;;;;;;14.74;88.58;102198.38;5064099;28;20132;-62
2021/08/28 01:55:15;;;;;;;18.50;4.80;;;;;;;14.78;88.39;102208.09;5061964;28;20498;-61
2021/08/28 01:57:42;;;;;;;15.27;5.20;;;;;;;14.79;89.12;102199.28;5064043;28;20048;-61
2021/08/28 02:00:08;;;;;;;15.63;5.13;;;;;;;14.83;88.70;102201.06;5062188;28;20029;-62
2021/08/28 02:02:33;;;;;;;15.55;5.13;;;;;;;14.83;88.66;102206.34;5062863;28;20025;-61
2021/08/28 02:05:00;;;;;;;20.48;5.25;;;;;;;14.84;89.13;102207.22;5062241;28;20505;-61
2021/08/28 02:07:48;;;;;;;17.00;4.85;;;;;;;14.87;88.64;102201.94;5063266;28;20393;-62
2021/08/28 02:10:44;;;;;;;24.38;4.63;;;;;;;14.92;88.40;102203.72;5062623;28;20033;-61
2021/08/28 02:13:26;;;;;;;19.15;5.13;;;;;;;14.97;88.40;102206.38;5060557;28;20075;-62
2021/08/28 02:15:58;;;;;;;12.85;4.22;;;;;;;15.01;88.29;102213.47;5064645;28;20048;-62
2021/08/28 02:18:44;;;;;;;15.35;4.07;;;;;;;15.21;85.57;102213.47;5057047;28;20032;-60
2021/08/28 02:21:10;;;;;;;15.40;3.85;;;;;;;15.31;84.86;102211.69;5057163;28;20024;-65
2021/08/28 02:23:48;;;;;;;17.05;3.72;;;;;;;15.32;84.84;102214.34;5063329;28;20029;-61
2021/08/28 02:26:29;;;;;;;17.02;4.53;;;;;;;15.31;84.84;102212.59;5062829;28;20552;-61
2021/08/28 02:29:00;;;;;;;16.35;4.53;;;;;;;15.30;84.67;102204.66;5062559;28;20045;-62
2021/08/28 02:31:30;;;;;;;10.75;4.25;;;;;;;15.23;85.04;102208.19;5063280;28;20088;-61
2021/08/28 02:33:56;;;;;;;11.68;3.72;;;;;;;15.25;84.45;102204.63;5062479;28;20477;-60
2021/08/28 02:36:22;;;;;;;17.92;3.88;;;;;;;15.31;84.02;102217.00;5062869;28;20036;-61
2021/08/28 02:38:49;;;;;;;10.57;3.70;;;;;;;15.35;83.76;102211.72;5063708;28;20100;-61
2021/08/28 02:41:17;;;;;;;17.10;3.78;;;;;;;15.34;83.26;102203.78;5057594;28;20036;-61
2021/08/28 02:43:44;;;;;;;10.68;3.70;;;;;;;15.39;83.07;102209.97;5059022;28;20468;-61
2021/08/28 02:46:10;;;;;;;14.05;4.07;;;;;;;15.30;83.26;102202.00;5062172;28;20048;-61
2021/08/28 02:48:37;;;;;;;14.73;3.85;;;;;;;15.23;83.71;102209.06;5066843;28;20049;-61
2021/08/28 02:51:06;;;;;;;12.27;4.35;;;;;;;15.17;84.33;102207.28;5060631;28;20044;-61
2021/08/28 02:53:33;;;;;;;11.70;3.78;;;;;;;15.08;84.42;102209.91;5063115;28;20037;-60
2021/08/28 02:56:00;;;;;;;15.63;3.83;;;;;;;15.08;84.33;102207.25;5060619;28;20105;-60
2021/08/28 02:58:27;;;;;;;13.80;4.20;;;;;;;15.09;84.27;102205.53;5070873;28;20025;-60
2021/08/28 03:00:54;;;;;;;19.35;5.18;;;;;;;15.04;84.35;102199.34;5066549;28;20061;-60
2021/08/28 03:03:20;;;;;;;18.45;4.55;;;;;;;15.05;83.83;102207.28;5066325;28;20063;-60
2021/08/28 03:05:48;;;;;;;15.88;4.25;;;;;;;15.07;83.44;102204.66;5066369;28;20061;-60
2021/08/28 03:08:16;;;;;;;19.23;3.78;;;;;;;15.02;83.57;102205.50;5066006;28;20041;-60
2021/08/28 03:10:45;;;;;;;15.60;4.32;;;;;;;14.97;83.75;102206.38;5063075;28;20033;-61
2021/08/28 03:13:10;;;;;;;10.90;4.13;;;;;;;14.99;83.48;102202.00;5066219;28;20369;-60
2021/08/28 03:15:36;;;;;;;14.80;3.95;;;;;;;14.97;83.62;102204.63;5064854;28;20105;-60
2021/08/28 03:18:04;;;;;;;14.30;4.30;;;;;;;14.92;84.06;102198.44;5066500;28;20037;-59
2021/08/28 03:20:30;;;;;;;17.75;4.03;;;;;;;14.97;83.36;102195.78;5066391;28;20041;-61
2021/08/28 03:22:56;;;;;;;13.90;3.70;;;;;;;15.01;83.56;102193.16;5065980;28;20139;-59
2021/08/28 03:25:21;;;;;;;13.30;3.97;;;;;;;15.08;83.44;102194.03;5066594;28;20056;-61
2021/08/28 03:27:49;;;;;;;13.85;4.47;;;;;;;15.01;83.59;102192.28;5066172;28;20578;-60
2021/08/28 03:30:16;;;;;;;12.02;4.45;;;;;;;14.97;84.51;102187.84;5063914;28;20039;-60
2021/08/28 03:32:43;;;;;;;15.25;4.47;;;;;;;15.02;84.00;102191.38;5065735;28;20024;-60
2021/08/28 03:35:10;;;;;;;14.52;4.32;;;;;;;15.03;83.78;102190.50;5062883;28;20119;-61
2021/08/28 03:37:39;;;;;;;18.25;4.20;;;;;;;15.01;83.88;102187.84;5094355;28;20029;-60
2021/08/28 03:40:06;;;;;;;10.85;4.00;;;;;;;15.01;83.93;102189.63;5063669;28;20025;-58
2021/08/28 03:42:32;;;;;;;13.57;3.80;;;;;;;15.02;84.19;102194.91;5066779;28;20040;-60
2021/08/28 03:44:58;;;;;;;9.30;3.88;;;;;;;14.96;84.58;102202.84;5070084;28;20041;-60
2021/08/28 03:47:24;;;;;;;11.55;3.95;;;;;;;14.99;84.12;102202.84;5073090;28;20040;-61
2021/08/28 03:49:49;;;;;;;17.75;3.83;;;;;;;15.02;84.04;102201.97;5065617;28;20029;-61
2021/08/28 03:52:14;;;;;;;16.90;4.53;;;;;;;14.98;84.15;102195.78;5065771;28;20064;-60
2021/08/28 03:54:40;;;;;;;13.95;4.40;;;;;;;14.97;84.47;102199.31;5064650;28;20376;-60
2021/08/28 03:57:05;;;;;;;17.75;4.80;;;;;;;14.95;84.58;102201.09;5065329;28;20049;-59
2021/08/28 03:59:31;;;;;;;15.57;4.00;;;;;;;14.93;85.61;102207.25;5065239;28;20071;-59
2021/08/28 04:01:56;;;;;;;13.52;4.10;;;;;;;15.02;84.75;102199.31;5065509;28;20562;-60
2021/08/28 04:04:21;;;;;;;12.82;4.32;;;;;;;15.04;84.41;102202.84;5064149;28;20119;-60
2021/08/28 04:06:47;;;;;;;11.25;4.30;;;;;;;15.10;84.06;102200.19;5065657;28;20059;-59
2021/08/28 04:09:12;;;;;;;12.35;4.00;;;;;;;15.17;83.93;102201.09;5064582;28;20021;-60
2021/08/28 04:11:37;;;;;;;12.82;4.05;;;;;;;15.15;84.18;102205.53;5063427;28;20053;-60
2021/08/28 04:14:03;;;;;;;13.52;3.95;;;;;;;15.11;84.62;102194.03;5062315;28;20054;-59
2021/08/28 04:16:28;;;;;;;19.30;4.70;;;;;;;15.08;84.13;102198.44;5082156;28;20036;-60
2021/08/28 04:18:53;;;;;;;13.45;3.70;;;;;;;15.12;84.17;102200.22;5065881;28;20029;-60
2021/08/28 04:21:19;;;;;;;15.75;4.63;;;;;;;15.10;84.38;102204.63;5064512;28;20493;-60
2021/08/28 04:23:44;;;;;;;15.73;4.50;;;;;;;15.08;84.27;102206.38;5075409;28;20025;-60
2021/08/28 04:26:10;;;;;;;13.70;4.30;;;;;;;15.17;83.13;102199.34;5065117;28;20129;-60
2021/08/28 04:28:35;;;;;;;16.17;4.38;;;;;;;15.17;83.26;102204.63;5067525;28;20028;-60
2021/08/28 04:31:01;;;;;;;13.57;4.45;;;;;;;15.13;83.58;102204.66;5065868;28;20033;-60
2021/08/28 04:33:26;;;;;;;16.13;4.18;;;;;;;15.02;84.18;102197.56;5064671;28;20048;-60
2021/08/28 04:35:52;;;;;;;12.90;4.90;;;;;;;14.97;84.51;102206.38;5066490;28;20040;-61
2021/08/28 04:38:17;;;;;;;17.92;4.90;;;;;;;14.89;85.10;102195.75;5065124;28;20555;-59
2021/08/28 04:40:43;;;;;;;10.70;3.47;;;;;;;14.95;84.60;102211.69;5062907;28;20037;-59
2021/08/28 04:43:08;;;;;;;13.65;4.18;;;;;;;14.91;84.97;102211.66;5064675;28;20380;-60
2021/08/28 04:45:33;;;;;;;12.68;3.92;;;;;;;14.92;84.64;102206.38;5064506;28;20051;-59
2021/08/28 04:47:59;;;;;;;12.60;3.92;;;;;;;14.92;84.45;102205.50;5068712;28;20032;-60
2021/08/28 04:50:24;;;;;;;15.18;4.32;;;;;;;14.91;84.53;102214.28;5064074;28;20028;-60
2021/08/28 04:52:49;;;;;;;12.65;3.97;;;;;;;14.85;85.05;102211.66;5064367;28;20029;-59
2021/08/28 04:55:15;;;;;;;13.65;4.07;;;;;;;14.90;84.39;102212.56;5067263;28;20029;-60
2021/08/28 04:57:40;;;;;;;12.80;3.97;;;;;;;14.91;84.26;102216.94;5068730;28;20039;-60
2021/08/28 05:00:06;;;;;;;14.60;4.50;;;;;;;14.90;83.95;102220.50;5063792;28;20029;-60
2021/08/28 05:02:31;;;;;;;15.90;4.97;;;;;;;14.92;83.63;102214.31;5064281;28;20032;-60
2021/08/28 05:04:57;;;;;;;14.48;3.95;;;;;;;14.97;83.26;102220.50;5064224;28;20089;-59
2021/08/28 05:07:22;;;;;;;16.73;4.20;;;;;;;14.93;83.55;102225.78;5064620;28;20078;-60
2021/08/28 05:09:47;;;;;;;12.20;3.83;;;;;;;14.98;82.98;102229.31;5065209;28;20033;-60
2021/08/28 05:12:13;;;;;;;9.50;3.75;;;;;;;14.98;82.71;102230.19;5062535;28;20025;-59
2021/08/28 05:14:39;;;;;;;12.48;4.10;;;;;;;14.96;82.23;102221.38;5062814;28;20037;-59
2021/08/28 05:17:05;;;;;;;11.23;4.22;;;;;;;14.97;83.10;102233.75;5063513;28;20158;-60
2021/08/28 05:19:31;;;;;;;11.85;4.07;;;;;;;14.97;82.36;102236.38;5064089;28;20043;-60
2021/08/28 05:21:57;;;;;;;9.73;3.88;;;;;;;15.02;81.84;102231.97;5061867;28;20036;-60
2021/08/28 05:24:23;;;;;;;14.63;4.00;;;;;;;15.04;82.33;102221.38;5062942;28;20021;-59
2021/08/28 05:26:48;;;;;;;15.32;3.67;;;;;;;15.08;81.95;102228.44;5061185;28;20452;-59
2021/08/28 05:29:13;;;;;;;12.15;3.45;;;;;;;15.10;82.01;102228.44;5063256;28;20033;-58
2021/08/28 05:31:39;;;;;;;11.30;3.60;;;;;;;15.16;81.69;102233.75;5062920;28;20028;-61
2021/08/28 05:34:04;;;;;;;12.25;3.70;;;;;;;15.14;82.00;102236.41;5063505;28;20037;-59
2021/08/28 05:36:29;;;;;;;12.40;4.43;;;;;;;15.12;81.98;102234.63;5063828;28;20032;-60
2021/08/28 05:38:55;;;;;;;14.65;4.20;;;;;;;15.06;82.62;102226.69;5064513;28;20579;-59
2021/08/28 05:41:21;;;;;;;15.23;4.07;;;;;;;15.03;82.76;102227.56;5063192;28;20040;-61
2021/08/28 05:43:47;;;;;;;13.35;4.07;;;;;;;15.06;82.77;102229.34;5063351;28;20033;-60
2021/08/28 05:46:12;;;;;;;10.75;4.25;;;;;;;15.03;83.19;102230.22;5061520;28;20041;-59
2021/08/28 05:48:37;;;;;;;13.82;4.50;;;;;;;15.06;83.02;102234.63;5062762;28;20029;-61
2021/08/28 05:51:03;;;;;;;13.20;4.22;;;;;;;15.02;83.67;102233.72;5063868;28;20341;-60
2021/08/28 05:53:28;;;;;;;14.38;4.60;;;;;;;15.03;83.62;102232.88;5063326;28;20026;-60
2021/08/28 05:55:54;;;;;;;13.95;4.22;;;;;;;15.17;82.63;102238.19;5045979;28;20041;-60
2021/08/28 05:58:19;;;;;;;14.02;4.43;;;;;;;15.25;82.79;102235.53;5063056;28;20086;-59
2021/08/28 06:00:44;;;;;;;15.98;4.93;;;;;;;15.30;82.64;102244.38;5063361;28;20025;-60
2021/08/28 06:03:10;;;;;;;18.38;4.63;;;;;;;15.27;83.54;102239.06;5063222;28;20442;-61
2021/08/28 06:05:35;;;;;;;11.40;4.22;;;;;;;15.36;82.35;102242.59;5064224;28;20052;-60
2021/08/28 06:08:00;;;;;;;13.68;4.72;;;;;;;15.45;81.32;102248.81;5063094;28;20041;-60
2021/08/28 06:10:26;;;;;;;14.45;4.28;;;;;;;15.49;81.44;102248.78;5062400;28;20472;-61
2021/08/28 06:12:51;;;;;;;12.20;4.10;;;;;;;15.52;81.49;102247.91;5062361;28;20101;-61
2021/08/28 06:15:16;;;;;;;16.13;4.40;;;;;;;15.53;81.91;102252.34;5061174;28;20025;-60
2021/08/28 06:17:42;;;;;;;11.05;4.32;;;;;;;15.58;81.43;102251.44;5063321;28;20029;-60
2021/08/28 06:20:08;;;;;;;17.67;5.20;;;;;;;15.56;81.52;102253.22;5062939;28;20067;-60
2021/08/28 06:22:33;;;;;;;10.82;4.70;;;;;;;15.57;82.34;102257.63;5063961;28;20475;-60
2021/08/28 06:24:59;;;;;;;13.93;4.63;;;;;;;15.69;81.33;102250.53;5062844;28;20039;-61
2021/08/28 06:27:24;;;;;;;13.82;4.05;;;;;;;15.84;80.37;102253.25;5062835;28;20040;-61
2021/08/28 06:29:49;;;;;;;13.25;4.30;;;;;;;15.89;80.50;102248.81;5062307;28;20127;-60
2021/08/28 06:32:15;;;;;;;13.30;4.30;;;;;;;15.96;80.36;102257.63;5062306;28;20043;-59
2021/08/28 06:34:40;;;;;;;12.32;4.00;;;;;;;16.06;80.10;102250.56;5064951;28;20033;-60
2021/08/28 06:37:06;;;;;;;18.67;4.53;;;;;;;16.11;80.08;102264.69;5060658;28;20033;-60
2021/08/28 06:39:31;;;;;;;11.27;4.03;;;;;;;16.14;80.43;102254.97;5066842;28;20029;-60
2021/08/28 06:41:57;;;;;;;10.45;4.00;;;;;;;16.26;80.01;102250.50;5063857;28;20179;-61
2021/08/28 06:44:23;;;;;;;14.43;4.45;;;;;;;16.28;81.00;102243.44;5066213;28;20025;-60
2021/08/28 06:46:49;;;;;;;13.85;4.13;;;;;;;16.41;79.73;102246.91;5066382;28;20086;-60
2021/08/28 06:49:14;;;;;;;14.30;4.25;;;;;;;16.56;79.01;102242.44;5066219;28;20057;-61
2021/08/28 06:51:40;;;;;;;11.77;4.70;;;;;;;16.68;77.30;102241.50;5066616;28;20453;-60
2021/08/28 06:54:05;;;;;;;21.63;4.63;;;;;;;16.72;78.08;102245.88;5062823;28;20037;-61
2021/08/28 06:56:30;;;;;;;13.85;4.20;;;;;;;16.79;77.41;102256.50;5066254;28;20134;-61
2021/08/28 06:58:56;;;;;;;16.40;4.75;;;;;;;16.83;77.55;102245.88;5071087;28;20056;-60
2021/08/28 07:01:21;;;;;;;14.30;3.78;;;;;;;16.87;76.53;102246.75;5066790;28;20049;-59
2021/08/28 07:03:47;;;;;;;10.07;4.07;;;;;;;16.89;77.14;102252.91;5069598;28;20032;-60
2021/08/28 07:06:12;;;;;;;15.07;3.92;;;;;;;16.87;76.60;102250.25;5066447;28;20083;-59
2021/08/28 07:08:37;;;;;;;13.20;4.07;;;;;;;16.83;77.76;102248.53;5066111;28;20119;-60
2021/08/28 07:11:04;;;;;;;14.85;4.65;;;;;;;16.85;75.97;102253.84;5064415;28;20535;-60
2021/08/28 07:13:29;;;;;;;14.07;4.55;;;;;;;16.85;77.44;102251.19;5072002;28;20084;-60
2021/08/28 07:15:55;;;;;;;10.13;4.07;;;;;;;16.92;76.31;102252.91;5066147;28;20024;-59
2021/08/28 07:18:20;;;;;;;12.73;3.63;;;;;;;17.05;75.13;102254.59;5065280;28;20039;-61
2021/08/28 07:20:45;;;;;;;18.13;4.32;;;;;;;17.04;76.28;102258.13;5065258;28;20059;-63
2021/08/28 07:23:11;;;;;;;11.15;3.67;;;;;;;17.09;75.97;102251.03;5065853;28;20033;-59
2021/08/28 07:25:37;;;;;;;11.60;4.47;;;;;;;17.09;75.01;102255.47;5065309;28;20033;-60
2021/08/28 07:28:11;;;;;;;10.98;4.03;;;;;;;17.08;76.02;102253.69;5065291;28;20082;-60
2021/08/28 07:30:37;;;;;;;12.35;3.72;;;;;;;17.12;74.43;102248.34;5065410;28;20059;-61
2021/08/28 07:33:03;;;;;;;9.90;3.40;;;;;;;17.18;74.62;102255.38;5066153;28;20020;-60
2021/08/28 07:35:30;;;;;;;9.35;3.50;;;;;;;17.17;74.02;102250.09;5065712;28;20033;-60
2021/08/28 07:37:55;;;;;;;7.18;3.40;;;;;;;17.12;73.84;102253.66;5065543;28;20163;-60
2021/08/28 07:40:23;;;;;;;12.13;3.38;;;;;;;17.10;73.27;102258.09;5066298;28;20036;-60
2021/08/28 07:42:57;;;;;;;15.82;3.78;;;;;;;16.99;73.40;102253.75;5065744;28;20043;-60
2021/08/28 07:45:24;;;;;;;9.60;3.20;;;;;;;16.99;73.53;102259.94;5061412;28;20021;-59
2021/08/28 07:47:49;;;;;;;9.38;3.38;;;;;;;16.98;73.53;102252.88;5062315;28;20136;-59
2021/08/28 07:50:15;;;;;;;13.05;4.18;;;;;;;16.94;74.25;102261.75;5065249;28;20060;-60
2021/08/28 07:52:42;;;;;;;11.27;3.85;;;;;;;16.93;74.32;102262.63;5064607;28;20029;-61
2021/08/28 07:55:09;;;;;;;10.35;3.63;;;;;;;16.98;74.53;102273.25;5065980;28;20033;-59
2021/08/28 07:57:34;;;;;;;10.68;3.22;;;;;;;17.00;74.04;102267.03;5066342;28;20025;-61
2021/08/28 07:59:59;;;;;;;9.85;3.42;;;;;;;16.96;74.80;102270.59;5065938;28;20044;-60
2021/08/28 08:02:25;;;;;;;10.57;3.70;;;;;;;16.98;75.31;102267.94;5064156;28;20064;-60
2021/08/28 08:04:50;;;;;;;12.88;3.63;;;;;;;17.07;74.73;102273.16;5044256;28;20057;-60
2021/08/28 08:07:16;;;;;;;11.45;3.53;;;;;;;17.12;73.72;102274.91;5066047;28;20033;-60
2021/08/28 08:09:41;;;;;;;12.15;3.55;;;;;;;17.11;73.86;102277.59;5071662;28;20092;-60
2021/08/28 08:12:07;;;;;;;9.77;3.47;;;;;;;17.14;73.96;102274.88;5066974;28;20504;-60
2021/08/28 08:14:32;;;;;;;11.10;3.72;;;;;;;17.23;73.68;102274.84;5063657;28;20086;-61
2021/08/28 08:16:58;;;;;;;11.02;3.70;;;;;;;17.29;73.41;102276.56;5069672;28;20029;-61
2021/08/28 08:19:23;;;;;;;13.75;3.92;;;;;;;17.34;73.54;102274.78;5064196;28;20124;-62
2021/08/28 08:21:48;;;;;;;9.18;3.78;;;;;;;17.54;73.41;102280.81;5065505;28;20035;-62
2021/08/28 08:24:14;;;;;;;14.40;4.00;;;;;;;17.87;71.40;102272.59;5063199;28;20044;-63
2021/08/28 08:26:39;;;;;;;7.35;3.42;;;;;;;18.07;69.96;102286.59;5066076;28;20073;-62
2021/08/28 08:29:05;;;;;;;10.88;3.28;;;;;;;18.01;69.79;102283.09;5064253;28;20025;-62
2021/08/28 08:31:30;;;;;;;11.30;3.22;;;;;;;17.95;69.65;102277.84;5064971;28;20040;-63
2021/08/28 08:33:56;;;;;;;11.38;3.53;;;;;;;18.01;70.05;102276.00;5062762;28;20037;-63
2021/08/28 08:36:21;;;;;;;9.63;3.70;;;;;;;18.18;71.00;102280.25;5065189;28;20075;-62
2021/08/28 08:38:47;;;;;;;8.20;3.30;;;;;;;18.35;70.04;102272.09;5065195;28;20029;-63
2021/08/28 08:41:13;;;;;;;10.45;3.55;;;;;;;18.47;67.87;102277.28;5064333;28;20032;-63
2021/08/28 08:43:39;;;;;;;8.20;3.08;;;;;;;18.58;68.14;102286.03;5064438;28;20076;-65
2021/08/28 08:46:08;;;;;;;9.70;3.30;;;;;;;18.81;66.07;102282.19;5064731;28;20033;-63
2021/08/28 08:48:35;;;;;;;8.10;3.33;;;;;;;19.00;66.45;102278.41;5063488;28;20033;-63
2021/08/28 08:51:01;;;;;;;9.82;3.28;;;;;;;19.26;66.89;102286.03;5056259;28;20018;-63
2021/08/28 08:53:29;;;;;;;8.25;3.58;;;;;;;19.39;65.83;102288.50;5058074;28;20116;-63
2021/08/28 08:55:55;;;;;;;7.38;3.65;;;;;;;19.60;64.58;102281.94;5064925;28;20027;-63
2021/08/28 08:58:21;;;;;;;9.40;3.00;;;;;;;19.63;64.39;102280.09;5061208;28;20037;-63
2021/08/28 09:00:46;;;;;;;7.72;3.03;;;;;;;19.55;63.29;102279.34;5064357;28;20029;-62
2021/08/28 09:03:12;;;;;;;6.43;3.17;;;;;;;19.49;62.97;102279.47;5061124;28;20029;-62
2021/08/28 09:05:38;;;;;;;8.38;3.47;;;;;;;19.40;62.13;102279.59;5063679;28;20052;-63
2021/08/28 09:08:03;;;;;;;9.85;3.35;;;;;;;19.19;64.75;102286.16;5058993;28;20033;-63
2021/08/28 09:10:29;;;;;;;7.10;3.40;;;;;;;19.02;63.48;102284.59;5064252;28;20033;-63
2021/08/28 09:12:54;;;;;;;5.30;3.40;;;;;;;18.78;64.37;102277.78;5064475;28;20044;-64
2021/08/28 09:15:20;;;;;;;7.53;3.53;;;;;;;18.57;65.66;102283.38;5065072;28;20037;-63
2021/08/28 09:17:59;;;;;;;8.35;3.70;;;;;;;18.42;67.84;102287.09;5055862;28;20029;-62
2021/08/28 09:20:25;;;;;;;8.60;3.65;;;;;;;18.24;69.67;102294.41;5058339;28;20108;-62
2021/08/28 09:23:06;;;;;;;14.32;3.90;;;;;;;18.25;69.66;102295.28;5063080;28;20032;-62
2021/08/28 09:25:31;;;;;;;9.18;3.75;;;;;;;18.04;71.31;102293.72;5064211;28;20084;-62
2021/08/28 09:27:57;;;;;;;14.88;4.72;;;;;;;17.98;70.96;102296.44;5067520;28;20052;-62
2021/08/28 09:30:23;;;;;;;6.97;4.25;;;;;;;17.79;71.42;102293.00;5056342;28;20037;-62
2021/08/28 09:33:02;;;;;;;10.43;4.18;;;;;;;17.67;73.30;102300.19;5060974;28;20403;-64
2021/08/28 09:35:48;;;;;;;9.60;4.53;;;;;;;17.66;74.17;102300.22;5061706;28;20025;-62
2021/08/28 09:38:17;;;;;;;11.80;4.25;;;;;;;17.81;74.97;102293.91;5063681;28;20033;-62
2021/08/28 09:40:46;;;;;;;10.63;4.20;;;;;;;18.03;75.02;102303.44;5061668;28;20041;-63
2021/08/28 09:43:19;;;;;;;10.82;4.78;;;;;;;18.38;73.87;102304.00;5060315;28;20064;-62
2021/08/28 09:45:47;;;;;;;10.95;4.38;;;;;;;18.84;70.57;102296.38;5061864;28;20032;-63
2021/08/28 09:48:14;;;;;;;8.32;4.20;;;;;;;19.14;69.18;102303.97;5049496;28;20029;-62
2021/08/28 09:50:41;;;;;;;10.27;4.30;;;;;;;19.23;65.70;102299.38;5063525;28;20032;-63
2021/08/28 09:53:18;;;;;;;7.95;3.97;;;;;;;19.24;66.49;102302.91;5063677;28;20326;-63
2021/08/28 09:55:44;;;;;;;9.38;4.18;;;;;;;19.20;66.00;102306.53;5062425;28;20029;-63
2021/08/28 09:58:11;;;;;;;7.80;3.78;;;;;;;19.03;65.29;102302.31;5051807;28;20362;-63
2021/08/28 10:00:44;;;;;;;10.50;3.85;;;;;;;18.85;63.66;102299.94;5062339;28;20139;-62
2021/08/28 10:03:10;;;;;;;6.65;3.75;;;;;;;18.82;63.05;102300.84;5055515;28;20037;-62
2021/08/28 10:05:37;;;;;;;7.70;3.95;;;;;;;18.88;63.44;102297.22;5060031;28;20047;-62
2021/08/28 10:08:05;;;;;;;6.47;3.47;;;;;;;18.95;64.26;102298.03;5061519;28;20474;-63
2021/08/28 10:10:33;;;;;;;12.15;4.20;;;;;;;19.12;63.40;102303.13;5062189;28;20025;-63
2021/08/28 10:12:59;;;;;;;8.57;3.80;;;;;;;19.38;63.50;102297.41;5061902;28;20365;-63
2021/08/28 10:15:25;;;;;;;10.15;3.90;;;;;;;19.67;64.57;102300.47;5061443;28;20021;-62
2021/08/28 10:17:52;;;;;;;7.25;3.80;;;;;;;19.71;64.04;102295.97;5063113;28;20025;-63
2021/08/28 10:20:19;;;;;;;10.23;3.60;;;;;;;19.61;62.82;102289.91;5062215;28;20029;-63
2021/08/28 10:22:49;;;;;;;10.00;3.67;;;;;;;19.37;62.48;102290.31;5063201;28;20021;-63
2021/08/28 10:25:17;;;;;;;14.55;4.85;;;;;;;19.13;63.91;102292.44;5062620;28;20067;-62
2021/08/28 10:27:44;;;;;;;10.85;4.30;;;;;;;18.86;64.68;102294.56;5059358;28;20035;-63
2021/08/28 10:30:11;;;;;;;9.77;3.75;;;;;;;18.82;64.25;102291.97;5055928;28;20071;-61
2021/08/28 10:32:38;;;;;;;7.45;3.92;;;;;;;18.91;63.93;102286.53;5062031;28;20036;-62
2021/08/28 10:35:04;;;;;;;7.55;3.60;;;;;;;19.10;62.97;102287.16;5057855;28;20044;-63
2021/08/28 10:37:29;;;;;;;8.52;3.67;;;;;;;19.39;61.65;102302.69;5062539;28;20026;-63
2021/08/28 10:39:55;;;;;;;8.10;3.80;;;;;;;19.46;61.73;102301.69;5062964;28;20041;-63
2021/08/28 10:42:22;;;;;;;10.02;4.07;;;;;;;19.38;63.48;102294.75;5062593;28;20060;-62
2021/08/28 10:44:51;;;;;;;10.50;3.53;;;;;;;19.39;62.10;102294.69;5062602;28;20043;-61
2021/08/28 10:47:22;;;;;;;10.15;3.80;;;;;;;19.25;61.22;102305.56;5062670;28;20025;-61
2021/08/28 10:49:52;;;;;;;9.75;3.95;;;;;;;19.07;62.93;102308.50;5062882;28;20032;-62
2021/08/28 10:52:22;;;;;;;8.00;3.72;;;;;;;19.05;63.35;102302.31;5062718;28;20029;-63
2021/08/28 10:54:59;;;;;;;9.63;3.65;;;;;;;19.04;65.10;102296.09;5062403;28;20044;-63
2021/08/28 10:57:28;;;;;;;8.52;3.58;;;;;;;19.00;64.62;102298.84;5062716;28;20534;-62
2021/08/28 11:00:00;;;;;;;7.47;3.28;;;;;;;19.07;63.00;102297.84;5060471;28;20037;-62
2021/08/28 11:02:53;;;;;;;9.93;3.33;;;;;;;18.96;65.79;102295.34;5061544;28;20141;-62
2021/08/28 11:05:22;;;;;;;9.93;3.72;;;;;;;18.96;65.05;102305.09;5053568;28;20045;-61
2021/08/28 11:07:48;;;;;;;11.98;3.88;;;;;;;18.93;64.68;102298.03;5061316;28;20032;-62
2021/08/28 11:10:31;;;;;;;10.77;3.75;;;;;;;18.87;65.79;102306.13;5058282;28;20033;-62
2021/08/28 11:13:02;;;;;;;7.35;3.30;;;;;;;18.95;66.10;102301.56;5060188;28;20033;-63
2021/08/28 11:15:27;;;;;;;9.93;4.18;;;;;;;18.98;64.15;102298.88;5056848;28;20085;-62
2021/08/28 11:18:08;;;;;;;9.57;3.38;;;;;;;19.08;64.86;102308.47;5055114;28;20033;-62
2021/08/28 11:20:43;;;;;;;9.43;3.40;;;;;;;19.24;64.68;102303.81;5058149;28;20071;-62